createdAt,value
2022-10-17T00:00:58.076Z,17.20
2022-10-17T00:03:25.731Z,17.20
2022-10-17T00:05:56.642Z,17.20
2022-10-17T00:08:25.919Z,17.20
2022-10-17T00:11:01.793Z,17.20
2022-10-17T00:13:29.851Z,17.20
2022-10-17T00:15:58.071Z,17.20
2022-10-17T00:18:25.357Z,17.30
2022-10-17T00:20:53.062Z,17.30
2022-10-17T00:23:20.772Z,17.40
2022-10-17T00:25:48.204Z,17.40
2022-10-17T00:28:15.899Z,17.50
2022-10-17T00:30:43.432Z,17.50
2022-10-17T00:33:10.840Z,17.50
2022-10-17T00:35:38.295Z,17.50
2022-10-17T00:38:05.635Z,17.60
2022-10-17T00:40:33.024Z,17.60
2022-10-17T00:43:00.457Z,17.60
2022-10-17T00:45:30.650Z,17.60
2022-10-17T00:48:08.562Z,17.70
2022-10-17T00:50:38.536Z,17.70
2022-10-17T00:53:08.152Z,17.70
2022-10-17T00:55:42.304Z,17.70
2022-10-17T00:58:09.771Z,17.70
2022-10-17T01:00:37.668Z,17.80
2022-10-17T01:03:05.370Z,17.80
2022-10-17T01:05:32.994Z,17.80
2022-10-17T01:08:00.914Z,17.80
2022-10-17T01:10:34.891Z,17.80
2022-10-17T01:13:08.442Z,17.80
2022-10-17T01:15:57.210Z,17.80
2022-10-17T01:18:39.198Z,17.80
2022-10-17T01:21:18.466Z,17.80
2022-10-17T01:24:13.307Z,17.80
2022-10-17T01:26:50.214Z,17.80
2022-10-17T01:29:48.294Z,17.70
2022-10-17T01:32:22.436Z,17.70
2022-10-17T01:35:12.513Z,17.70
2022-10-17T01:40:35.977Z,17.60
2022-10-17T01:43:13.558Z,17.60
2022-10-17T01:45:45.738Z,17.60
2022-10-17T01:48:22.820Z,17.50
2022-10-17T01:51:13.270Z,17.50
2022-10-17T01:53:53.395Z,17.40
2022-10-17T01:56:25.210Z,17.30
2022-10-17T01:59:07.004Z,17.30
2022-10-17T02:01:38.223Z,17.30
2022-10-17T02:04:08.862Z,17.20
2022-10-17T02:06:36.801Z,17.20
2022-10-17T02:09:20.305Z,17.10
2022-10-17T02:12:02.825Z,17.10
2022-10-17T02:14:33.799Z,17.00
2022-10-17T02:17:22.835Z,17.00
2022-10-17T02:20:17.136Z,16.90
2022-10-17T02:22:54.080Z,16.90
2022-10-17T02:25:27.031Z,16.90
2022-10-17T02:28:04.792Z,16.80
2022-10-17T02:30:54.952Z,16.80
2022-10-17T02:33:33.980Z,16.80
2022-10-17T02:36:08.909Z,16.70
2022-10-17T02:38:36.699Z,16.70
2022-10-17T02:41:06.094Z,16.70
2022-10-17T02:43:36.748Z,16.70
2022-10-17T02:46:05.807Z,16.60
2022-10-17T02:48:42.407Z,16.60
2022-10-17T02:51:22.450Z,16.60
2022-10-17T02:53:55.458Z,16.50
2022-10-17T02:56:24.474Z,16.50
2022-10-17T02:58:56.959Z,16.50
2022-10-17T03:01:25.052Z,16.50
2022-10-17T03:04:09.127Z,16.50
2022-10-17T03:06:36.591Z,16.40
2022-10-17T03:09:04.281Z,16.40
2022-10-17T03:11:31.564Z,16.30
2022-10-17T03:13:58.804Z,16.30
2022-10-17T03:16:27.832Z,16.30
2022-10-17T03:18:56.442Z,16.30
2022-10-17T03:21:23.653Z,16.20
2022-10-17T03:23:51.670Z,16.20
2022-10-17T03:26:21.120Z,16.20
2022-10-17T03:28:50.711Z,16.10
2022-10-17T03:31:21.760Z,16.10
2022-10-17T03:33:49.635Z,16.10
2022-10-17T03:36:19.211Z,16.10
2022-10-17T03:38:48.065Z,16.00
2022-10-17T03:41:17.089Z,16.00
2022-10-17T03:43:44.495Z,16.00
2022-10-17T03:46:11.841Z,16.00
2022-10-17T03:48:40.405Z,15.90
2022-10-17T03:51:10.292Z,15.90
2022-10-17T03:53:45.368Z,15.90
2022-10-17T03:56:18.735Z,15.90
2022-10-17T03:58:54.087Z,15.80
2022-10-17T04:01:22.730Z,15.80
2022-10-17T04:03:52.139Z,15.70
2022-10-17T04:06:20.323Z,15.70
2022-10-17T04:08:48.283Z,15.70
2022-10-17T04:11:25.155Z,15.60
2022-10-17T04:13:56.198Z,15.60
2022-10-17T04:16:25.183Z,15.60
2022-10-17T04:19:00.106Z,15.50
2022-10-17T04:21:31.572Z,15.50
2022-10-17T04:24:04.070Z,15.50
2022-10-17T04:26:43.125Z,15.50
2022-10-17T04:29:11.202Z,15.40
2022-10-17T04:31:39.775Z,15.40
2022-10-17T04:34:19.259Z,15.40
2022-10-17T04:36:47.146Z,15.30
2022-10-17T04:39:15.117Z,15.30
2022-10-17T04:41:44.714Z,15.30
2022-10-17T04:44:12.770Z,15.30
2022-10-17T04:46:44.762Z,15.30
2022-10-17T04:49:12.521Z,15.30
2022-10-17T04:51:43.684Z,15.30
2022-10-17T04:54:19.214Z,15.20
2022-10-17T04:56:50.495Z,15.20
2022-10-17T04:59:18.112Z,15.20
2022-10-17T05:01:49.485Z,15.20
2022-10-17T05:04:22.355Z,15.20
2022-10-17T05:06:53.231Z,15.20
2022-10-17T05:09:39.163Z,15.20
2022-10-17T05:12:09.505Z,15.20
2022-10-17T05:14:39.556Z,15.30
2022-10-17T05:17:07.118Z,15.30
2022-10-17T05:19:35.259Z,15.30
2022-10-17T05:22:02.672Z,15.30
2022-10-17T05:24:30.129Z,15.30
2022-10-17T05:26:57.568Z,15.30
2022-10-17T05:29:25.288Z,15.30
2022-10-17T05:34:29.596Z,15.30
2022-10-17T05:36:57.811Z,15.30
2022-10-17T05:39:25.571Z,15.30
2022-10-17T05:41:53.517Z,15.30
2022-10-17T05:44:21.760Z,15.30
2022-10-17T05:46:54.526Z,15.30
2022-10-17T05:49:32.959Z,15.30
2022-10-17T05:52:08.462Z,15.30
2022-10-17T05:54:46.823Z,15.30
2022-10-17T05:57:14.444Z,15.30
2022-10-17T05:59:42.062Z,15.30
2022-10-17T06:02:13.912Z,15.30
2022-10-17T06:04:45.541Z,15.30
2022-10-17T06:07:14.345Z,15.40
2022-10-17T06:09:43.511Z,15.40
2022-10-17T06:12:11.772Z,15.40
2022-10-17T06:14:39.486Z,15.40
2022-10-17T06:17:12.116Z,15.50
2022-10-17T06:19:42.834Z,15.50
2022-10-17T06:22:10.755Z,15.60
2022-10-17T06:24:38.452Z,15.70
2022-10-17T06:27:10.891Z,15.90
2022-10-17T06:29:43.935Z,16.10
2022-10-17T06:32:14.269Z,16.50
2022-10-17T06:34:53.557Z,16.80
2022-10-17T06:37:21.176Z,17.20
2022-10-17T06:39:48.799Z,17.50
2022-10-17T06:42:20.507Z,17.80
2022-10-17T06:45:08.449Z,18.20
2022-10-17T06:47:42.869Z,18.50
2022-10-17T06:50:31.944Z,18.90
2022-10-17T06:53:10.499Z,19.30
2022-10-17T06:55:53.869Z,19.60
2022-10-17T06:58:41.584Z,20.00
2022-10-17T07:01:22.550Z,20.50
2022-10-17T07:03:52.875Z,21.00
2022-10-17T07:06:23.199Z,21.40
2022-10-17T07:08:52.380Z,21.90
2022-10-17T07:11:21.681Z,22.40
2022-10-17T07:13:51.909Z,23.00
2022-10-17T07:16:21.125Z,23.60
2022-10-17T07:18:54.301Z,24.10
2022-10-17T07:21:22.702Z,24.60
2022-10-17T07:23:50.660Z,25.10
2022-10-17T07:26:19.647Z,25.50
2022-10-17T07:28:52.865Z,26.00
2022-10-17T07:31:40.871Z,26.40
2022-10-17T07:34:08.479Z,26.60
2022-10-17T07:36:36.732Z,26.70
2022-10-17T07:39:06.531Z,26.80
2022-10-17T07:41:39.538Z,26.80
2022-10-17T07:44:07.923Z,26.70
2022-10-17T07:46:41.296Z,26.60
2022-10-17T07:49:09.160Z,26.50
2022-10-17T07:51:38.982Z,26.50
2022-10-17T07:54:06.933Z,26.40
2022-10-17T07:56:35.084Z,26.40
2022-10-17T07:59:05.320Z,26.70
2022-10-17T08:01:36.404Z,26.90
2022-10-17T08:04:04.080Z,27.20
2022-10-17T08:06:31.607Z,27.60
2022-10-17T08:08:59.697Z,28.00
2022-10-17T08:11:28.337Z,28.40
2022-10-17T08:13:56.600Z,28.70
2022-10-17T08:16:24.060Z,29.10
2022-10-17T08:18:51.804Z,29.40
2022-10-17T08:21:19.857Z,29.70
2022-10-17T08:23:47.821Z,29.90
2022-10-17T08:26:24.759Z,30.10
2022-10-17T08:28:59.629Z,30.10
2022-10-17T08:31:29.844Z,30.10
2022-10-17T08:33:57.923Z,30.10
2022-10-17T08:36:25.682Z,29.90
2022-10-17T08:38:53.439Z,29.70
2022-10-17T08:41:58.701Z,29.40
2022-10-17T08:44:50.242Z,29.00
2022-10-17T08:47:37.724Z,28.50
2022-10-17T08:50:18.402Z,27.90
2022-10-17T08:52:54.768Z,27.40
2022-10-17T08:55:44.549Z,26.90
2022-10-17T08:58:35.352Z,26.40
2022-10-17T09:01:26.166Z,26.00
2022-10-17T09:04:13.067Z,25.70
2022-10-17T09:07:09.604Z,25.30
2022-10-17T09:10:03.300Z,24.90
2022-10-17T09:13:04.006Z,24.70
2022-10-17T09:15:56.462Z,24.50
2022-10-17T09:18:35.391Z,24.30
2022-10-17T09:21:24.496Z,24.10
2022-10-17T09:24:08.920Z,23.90
2022-10-17T09:26:40.465Z,23.80
2022-10-17T09:29:28.608Z,23.70
2022-10-17T09:32:24.014Z,23.60
2022-10-17T09:34:54.980Z,23.50
2022-10-17T09:37:29.683Z,23.50
2022-10-17T09:39:57.666Z,23.50
2022-10-17T09:42:27.738Z,23.50
2022-10-17T09:45:19.403Z,23.60
2022-10-17T09:48:09.161Z,23.60
2022-10-17T09:50:37.962Z,23.60
2022-10-17T09:53:11.093Z,23.70
2022-10-17T09:55:48.842Z,23.70
2022-10-17T09:58:16.637Z,23.60
2022-10-17T10:00:47.116Z,23.60
2022-10-17T10:03:23.455Z,23.60
2022-10-17T10:06:20.293Z,23.60
2022-10-17T10:08:53.467Z,23.50
2022-10-17T10:11:44.340Z,23.50
2022-10-17T10:14:22.964Z,23.60
2022-10-17T10:16:53.656Z,23.60
2022-10-17T10:19:33.746Z,23.60
2022-10-17T10:22:23.744Z,23.70
2022-10-17T10:25:10.450Z,23.70
2022-10-17T10:27:40.876Z,23.80
2022-10-17T10:30:18.802Z,23.90
2022-10-17T10:32:49.201Z,23.90
2022-10-17T10:35:23.006Z,24.00
2022-10-17T10:37:54.058Z,24.00
2022-10-17T10:40:37.221Z,24.00
2022-10-17T10:43:06.429Z,24.00
2022-10-17T10:45:47.367Z,24.00
2022-10-17T10:48:32.424Z,24.00
2022-10-17T10:51:11.446Z,24.00
2022-10-17T10:54:23.359Z,24.00
2022-10-17T10:56:54.698Z,24.00
2022-10-17T10:59:53.314Z,24.10
2022-10-17T11:02:46.233Z,24.10
2022-10-17T11:05:16.794Z,24.20
2022-10-17T11:07:56.052Z,24.20
2022-10-17T11:10:35.671Z,24.20
2022-10-17T11:13:13.626Z,24.30
2022-10-17T11:15:48.296Z,24.30
2022-10-17T11:18:27.191Z,24.40
2022-10-17T11:21:30.174Z,24.50
2022-10-17T11:24:09.272Z,24.50
2022-10-17T11:26:43.660Z,24.50
2022-10-17T11:29:13.677Z,24.50
2022-10-17T11:31:48.944Z,24.50
2022-10-17T11:34:27.836Z,24.50
2022-10-17T11:37:01.479Z,24.60
2022-10-17T11:39:51.082Z,24.50
2022-10-17T11:42:29.079Z,24.50
2022-10-17T11:45:04.746Z,24.60
2022-10-17T11:47:45.813Z,24.60
2022-10-17T11:53:22.966Z,24.60
2022-10-17T11:55:52.463Z,24.70
2022-10-17T11:58:20.115Z,24.70
2022-10-17T12:01:26.112Z,24.70
2022-10-17T12:04:12.924Z,24.70
2022-10-17T12:07:01.028Z,24.70
2022-10-17T12:09:41.002Z,24.80
2022-10-17T12:12:08.669Z,24.80
2022-10-17T12:14:35.956Z,24.80
2022-10-17T12:17:05.241Z,24.80
2022-10-17T12:19:37.499Z,24.90
2022-10-17T12:22:28.831Z,24.80
2022-10-17T12:25:04.308Z,24.90
2022-10-17T12:27:33.593Z,24.90
2022-10-17T12:30:07.067Z,24.90
2022-10-17T12:33:03.876Z,25.00
2022-10-17T12:35:25.088Z,25.00
2022-10-17T12:37:57.378Z,25.10
2022-10-17T12:40:35.930Z,25.10
2022-10-17T12:43:15.325Z,25.20
2022-10-17T12:46:13.747Z,25.20
2022-10-17T12:48:41.114Z,25.20
2022-10-17T12:51:37.399Z,25.20
2022-10-17T12:54:12.942Z,25.20
2022-10-17T12:56:46.664Z,25.20
2022-10-17T12:59:25.863Z,25.30
2022-10-17T13:01:59.802Z,25.30
2022-10-17T13:04:29.748Z,25.30
2022-10-17T13:06:58.940Z,25.30
2022-10-17T13:09:33.506Z,25.30
2022-10-17T13:12:04.599Z,25.30
2022-10-17T13:14:33.829Z,25.40
2022-10-17T13:17:04.046Z,25.40
2022-10-17T13:19:43.776Z,25.40
2022-10-17T13:22:23.303Z,25.40
2022-10-17T13:24:52.171Z,25.40
2022-10-17T13:27:25.279Z,25.40
2022-10-17T13:29:53.102Z,25.50
2022-10-17T13:32:20.838Z,25.50
2022-10-17T13:35:12.671Z,25.50
2022-10-17T13:37:41.779Z,25.60
2022-10-17T13:40:40.892Z,25.60
2022-10-17T13:43:18.171Z,25.60
2022-10-17T13:45:52.497Z,25.60
2022-10-17T13:48:25.227Z,25.60
2022-10-17T13:50:59.106Z,25.60
2022-10-17T13:53:39.755Z,25.60
2022-10-17T13:56:28.923Z,25.60
2022-10-17T13:59:01.367Z,25.60
2022-10-17T14:01:30.023Z,25.60
2022-10-17T14:04:20.231Z,25.60
2022-10-17T14:06:51.299Z,25.60
2022-10-17T14:09:25.738Z,25.60
2022-10-17T14:12:06.339Z,25.50
2022-10-17T14:14:51.666Z,25.60
2022-10-17T14:17:25.589Z,25.50
2022-10-17T14:20:30.860Z,25.50
2022-10-17T14:23:17.473Z,25.50
2022-10-17T14:25:41.107Z,25.50
2022-10-17T14:28:11.815Z,25.50
2022-10-17T14:31:02.967Z,25.40
2022-10-17T14:33:31.825Z,25.40
2022-10-17T14:36:01.456Z,25.40
2022-10-17T14:38:30.361Z,25.30
2022-10-17T14:41:23.569Z,25.30
2022-10-17T14:44:02.309Z,25.30
2022-10-17T14:46:32.255Z,25.30
2022-10-17T14:49:15.331Z,25.20
2022-10-17T14:52:24.076Z,25.20
2022-10-17T14:54:51.814Z,25.10
2022-10-17T14:57:34.547Z,25.10
2022-10-17T15:00:02.171Z,25.10
2022-10-17T15:02:30.775Z,25.10
2022-10-17T15:04:58.527Z,25.10
2022-10-17T15:07:25.885Z,25.00
2022-10-17T15:09:54.087Z,25.00
2022-10-17T15:12:24.996Z,25.00
2022-10-17T15:14:53.238Z,24.90
2022-10-17T15:17:27.075Z,24.90
2022-10-17T15:19:54.603Z,24.90
2022-10-17T15:22:22.928Z,24.90
2022-10-17T15:24:50.672Z,24.80
2022-10-17T15:27:21.270Z,24.80
2022-10-17T15:29:53.034Z,24.70
2022-10-17T15:32:20.484Z,24.70
2022-10-17T15:34:48.149Z,24.60
2022-10-17T15:37:35.827Z,24.60
2022-10-17T15:40:03.775Z,24.60
2022-10-17T15:42:31.342Z,24.50
2022-10-17T15:44:58.954Z,24.50
2022-10-17T15:47:33.824Z,24.40
2022-10-17T15:50:02.224Z,24.30
2022-10-17T15:52:29.783Z,24.30
2022-10-17T15:54:59.550Z,24.20
2022-10-17T15:57:33.777Z,24.10
2022-10-17T16:00:01.637Z,24.10
2022-10-17T16:02:29.195Z,24.00
2022-10-17T16:04:56.499Z,23.90
2022-10-17T16:07:23.976Z,23.80
2022-10-17T16:09:52.008Z,23.70
2022-10-17T16:12:27.602Z,23.70
2022-10-17T16:14:55.427Z,23.60
2022-10-17T16:17:22.892Z,23.50
2022-10-17T16:19:50.455Z,23.50
2022-10-17T16:22:24.523Z,23.40
2022-10-17T16:24:58.254Z,23.30
2022-10-17T16:27:26.638Z,23.20
2022-10-17T16:29:54.023Z,23.10
2022-10-17T16:32:21.693Z,23.00
2022-10-17T16:34:48.888Z,22.90
2022-10-17T16:37:16.344Z,22.70
2022-10-17T16:39:48.826Z,22.60
2022-10-17T16:42:16.188Z,22.60
2022-10-17T16:44:43.760Z,22.40
2022-10-17T16:47:11.363Z,22.30
2022-10-17T16:49:41.610Z,22.20
2022-10-17T16:52:12.134Z,22.10
2022-10-17T16:54:39.482Z,22.00
2022-10-17T16:57:06.980Z,21.90
2022-10-17T16:59:34.371Z,21.90
2022-10-17T17:02:01.821Z,21.70
2022-10-17T17:04:29.362Z,21.70
2022-10-17T17:06:56.800Z,21.60
2022-10-17T17:09:24.295Z,21.50
2022-10-17T17:11:51.831Z,21.40
2022-10-17T17:14:19.224Z,21.30
2022-10-17T17:16:46.739Z,21.30
2022-10-17T17:19:16.934Z,21.20
2022-10-17T17:21:49.985Z,21.10
2022-10-17T17:24:20.733Z,21.10
2022-10-17T17:26:53.333Z,21.00
2022-10-17T17:29:22.180Z,20.90
2022-10-17T17:31:50.475Z,20.90
2022-10-17T17:34:18.464Z,20.80
2022-10-17T17:36:46.124Z,20.70
2022-10-17T17:39:14.788Z,20.60
2022-10-17T17:41:42.973Z,20.60
2022-10-17T17:44:15.592Z,20.50
2022-10-17T17:46:44.895Z,20.40
2022-10-17T17:49:12.735Z,20.40
2022-10-17T17:51:41.574Z,20.30
2022-10-17T17:54:11.442Z,20.20
2022-10-17T17:56:39.567Z,20.20
2022-10-17T17:59:07.272Z,20.10
2022-10-17T18:01:39.091Z,20.10
2022-10-17T18:04:08.679Z,20.00
2022-10-17T18:06:37.781Z,19.90
2022-10-17T18:09:06.885Z,19.90
2022-10-17T18:11:35.252Z,19.80
2022-10-17T18:14:06.571Z,19.80
2022-10-17T18:16:36.386Z,19.70
2022-10-17T18:19:07.114Z,19.70
2022-10-17T18:21:36.292Z,19.70
2022-10-17T18:24:04.893Z,19.60
2022-10-17T18:26:33.315Z,19.60
2022-10-17T18:29:01.143Z,19.50
2022-10-17T18:31:32.024Z,19.50
2022-10-17T18:34:03.059Z,19.40
2022-10-17T18:36:33.306Z,19.40
2022-10-17T18:39:01.769Z,19.40
2022-10-17T18:41:29.902Z,19.30
2022-10-17T18:43:57.880Z,19.30
2022-10-17T18:46:31.248Z,19.30
2022-10-17T18:48:58.952Z,19.30
2022-10-17T18:51:27.321Z,19.30
2022-10-17T18:53:58.414Z,19.20
2022-10-17T18:56:26.809Z,19.20
2022-10-17T18:58:54.640Z,19.20
2022-10-17T19:01:24.540Z,19.20
2022-10-17T19:03:53.803Z,19.20
2022-10-17T19:06:23.616Z,19.20
2022-10-17T19:08:50.865Z,19.10
2022-10-17T19:11:26.833Z,19.10
2022-10-17T19:13:57.803Z,19.10
2022-10-17T19:16:28.468Z,19.10
2022-10-17T19:18:59.653Z,19.00
2022-10-17T19:21:27.581Z,19.00
2022-10-17T19:23:57.556Z,18.90
2022-10-17T19:26:27.367Z,18.90
2022-10-17T19:28:56.002Z,18.90
2022-10-17T19:31:27.097Z,18.80
2022-10-17T19:33:56.103Z,18.80
2022-10-17T19:36:30.403Z,18.70
2022-10-17T19:39:03.293Z,18.70
2022-10-17T19:41:31.619Z,18.70
2022-10-17T19:44:00.552Z,18.60
2022-10-17T19:46:29.453Z,18.60
2022-10-17T19:48:57.391Z,18.60
2022-10-17T19:51:26.295Z,18.60
2022-10-17T19:53:56.628Z,18.60
2022-10-17T19:56:25.413Z,18.60
2022-10-17T19:58:54.407Z,18.50
2022-10-17T20:01:28.125Z,18.50
2022-10-17T20:03:55.804Z,18.40
2022-10-17T20:06:24.050Z,18.40
2022-10-17T20:08:51.732Z,18.30
2022-10-17T20:11:22.842Z,18.20
2022-10-17T20:13:51.429Z,18.20
2022-10-17T20:16:25.584Z,18.10
2022-10-17T20:18:55.599Z,18.10
2022-10-17T20:21:27.274Z,18.10
2022-10-17T20:23:55.237Z,18.00
2022-10-17T20:26:37.105Z,18.00
2022-10-17T20:29:11.385Z,17.90
2022-10-17T20:31:40.612Z,17.90
2022-10-17T20:34:09.650Z,17.80
2022-10-17T20:36:37.554Z,17.80
2022-10-17T20:39:07.134Z,17.70
2022-10-17T20:41:35.040Z,17.70
2022-10-17T20:44:02.859Z,17.70
2022-10-17T20:46:36.803Z,17.60
2022-10-17T20:49:06.938Z,17.60
2022-10-17T20:51:35.362Z,17.60
2022-10-17T20:54:03.909Z,17.60
2022-10-17T20:56:32.786Z,17.60
2022-10-17T20:59:02.227Z,17.50
2022-10-17T21:01:31.645Z,17.50
2022-10-17T21:04:06.129Z,17.50
2022-10-17T21:06:38.205Z,17.50
2022-10-17T21:09:06.347Z,17.50
2022-10-17T21:11:33.582Z,17.40
2022-10-17T21:14:03.912Z,17.40
2022-10-17T21:16:35.614Z,17.30
2022-10-17T21:19:03.863Z,17.30
2022-10-17T21:21:33.851Z,17.30
2022-10-17T21:24:04.791Z,17.20
2022-10-17T21:26:34.013Z,17.20
2022-10-17T21:29:05.686Z,17.20
2022-10-17T21:31:35.504Z,17.20
2022-10-17T21:34:23.749Z,17.10
2022-10-17T21:36:51.381Z,17.10
2022-10-17T21:39:18.894Z,17.10
2022-10-17T21:41:46.687Z,17.00
2022-10-17T21:44:16.340Z,17.00
2022-10-17T21:46:44.389Z,17.00
2022-10-17T21:49:14.046Z,16.90
2022-10-17T21:51:41.751Z,16.90
2022-10-17T21:54:09.215Z,16.90
2022-10-17T21:56:37.400Z,16.80
2022-10-17T21:59:05.234Z,16.80
2022-10-17T22:01:38.481Z,16.80
2022-10-17T22:04:10.258Z,16.70
2022-10-17T22:06:40.612Z,16.70
2022-10-17T22:09:24.555Z,16.70
2022-10-17T22:11:56.743Z,16.70
2022-10-17T22:14:26.706Z,16.60
2022-10-17T22:16:54.722Z,16.60
2022-10-17T22:19:25.259Z,16.60
2022-10-17T22:21:53.529Z,16.60
2022-10-17T22:26:54.567Z,16.50
2022-10-17T22:29:21.823Z,16.50
2022-10-17T22:31:49.494Z,16.50
2022-10-17T22:34:17.619Z,16.50
2022-10-17T22:36:47.556Z,16.50
2022-10-17T22:39:14.887Z,16.50
2022-10-17T22:41:42.232Z,16.40
2022-10-17T22:44:09.711Z,16.40
2022-10-17T22:46:37.199Z,16.40
2022-10-17T22:49:04.599Z,16.40
2022-10-17T22:51:32.321Z,16.30
2022-10-17T22:53:59.771Z,16.30
2022-10-17T22:56:27.476Z,16.30
2022-10-17T22:58:54.776Z,16.20
2022-10-17T23:01:24.464Z,16.20
2022-10-17T23:03:53.161Z,16.20
2022-10-17T23:06:20.822Z,16.20
2022-10-17T23:08:48.901Z,16.10
2022-10-17T23:11:16.668Z,16.10
2022-10-17T23:13:44.396Z,16.10
2022-10-17T23:16:11.756Z,16.00
2022-10-17T23:18:39.278Z,16.00
2022-10-17T23:21:07.629Z,16.00
2022-10-17T23:23:35.898Z,16.00
2022-10-17T23:26:09.406Z,16.00
2022-10-17T23:28:37.670Z,16.00
2022-10-17T23:31:18.411Z,16.00
2022-10-17T23:33:47.759Z,15.90
2022-10-17T23:36:17.802Z,15.90
2022-10-17T23:38:46.234Z,15.90
2022-10-17T23:41:14.299Z,15.90
2022-10-17T23:43:42.062Z,15.90
2022-10-17T23:46:09.771Z,15.90
2022-10-17T23:48:38.573Z,15.80
2022-10-17T23:51:07.754Z,15.80
2022-10-17T23:53:39.172Z,15.80
2022-10-17T23:56:07.991Z,15.80
2022-10-17T23:58:37.863Z,15.80
